Time,TemperatureF,DewpointF,PressureIn,WindDirection,WindDirectionDegrees,WindSpeedMPH,WindSpeedGustMPH,Humidity,HourlyPrecipIn,Conditions,Clouds,dailyrainin,SolarRadiationWatts/m^2,SoftwareType,DateUTC
2013-01-25 00:00:00,61.1,54.9,30.21,ENE,72,0.0,0.0,80,0.00,,FEW070,0.00,0.00,VWS V14.00,2013-01-25 05:00:00,
2013-01-25 00:01:00,61.1,54.9,30.21,ENE,72,0.0,1.0,80,0.00,,FEW070,0.00,0.00,VWS V14.00,2013-01-25 05:01:00,
2013-01-25 00:03:00,61.1,54.9,30.21,ENE,72,0.0,0.0,80,0.00,,FEW070,0.00,0.00,VWS V14.00,2013-01-25 05:03:00,
2013-01-25 00:08:00,61.1,54.9,30.21,ENE,72,0.0,0.0,80,0.00,,FEW070,0.00,0.00,VWS V14.00,2013-01-25 05:08:00,
2013-01-25 00:13:00,60.9,55.0,30.21,ENE,72,0.0,0.0,81,0.00,,FEW070,0.00,0.00,VWS V14.00,2013-01-25 05:13:00,
2013-01-25 00:18:00,60.7,54.8,30.21,ENE,72,0.0,0.0,81,0.00,,FEW070,0.00,0.00,VWS V14.00,2013-01-25 05:18:00,
2013-01-25 00:23:00,60.6,54.8,30.21,ENE,72,0.0,0.0,81,0.00,,FEW070,0.00,0.00,VWS V14.00,2013-01-25 05:23:00,
2013-01-25 00:28:00,60.4,54.9,30.21,ENE,72,0.0,0.0,82,0.00,,FEW070,0.00,0.00,VWS V14.00,2013-01-25 05:28:00,
2013-01-25 00:33:00,60.3,54.8,30.21,ENE,72,0.0,0.0,82,0.00,,FEW070,0.00,0.00,VWS V14.00,2013-01-25 05:33:00,
2013-01-25 00:38:00,60.2,55.0,30.21,ENE,72,0.0,0.0,83,0.00,,FEW070,0.00,0.00,VWS V14.00,2013-01-25 05:38:00,
2013-01-25 00:43:00,60.0,54.8,30.21,ENE,72,0.0,0.0,83,0.00,,FEW070,0.00,0.00,VWS V14.00,2013-01-25 05:43:00,
2013-01-25 00:48:00,59.9,55.1,30.20,ENE,72,0.0,0.0,84,0.00,,FEW070,0.00,0.00,VWS V14.00,2013-01-25 05:48:00,
2013-01-25 00:53:00,59.8,55.0,30.20,ENE,72,0.0,0.0,84,0.00,,FEW070,0.00,0.00,VWS V14.00,2013-01-25 05:53:00,
2013-01-25 00:58:00,59.7,54.9,30.20,ENE,72,0.0,0.0,84,0.00,,FEW070,0.00,0.00,VWS V14.00,2013-01-25 05:58:00,
2013-01-25 01:03:00,59.5,54.7,30.20,ENE,72,0.0,0.0,84,0.00,,FEW070,0.00,0.00,VWS V14.00,2013-01-25 06:03:00,
2013-01-25 01:08:00,59.3,54.8,30.20,ENE,72,0.0,0.0,85,0.00,,FEW070,0.00,0.00,VWS V14.00,2013-01-25 06:08:00,
2013-01-25 01:13:00,59.2,54.7,30.20,ENE,72,0.0,0.0,85,0.00,,FEW070,0.00,0.00,VWS V14.00,2013-01-25 06:13:00,
2013-01-25 01:18:00,59.0,54.5,30.20,ENE,72,0.0,0.0,85,0.00,,FEW070,0.00,0.00,VWS V14.00,2013-01-25 06:18:00,
2013-01-25 01:23:00,58.9,54.7,30.20,ENE,72,0.0,0.0,86,0.00,,FEW070,0.00,0.00,VWS V14.00,2013-01-25 06:23:00,
2013-01-25 01:28:00,58.7,54.5,30.20,ENE,72,0.0,0.0,86,0.00,,FEW070,0.00,0.00,VWS V14.00,2013-01-25 06:28:00,
2013-01-25 01:33:00,58.6,54.4,30.20,ENE,72,0.0,0.0,86,0.00,,FEW070,0.00,0.00,VWS V14.00,2013-01-25 06:33:00,
2013-01-25 01:38:00,58.6,54.8,30.20,ENE,72,0.0,0.0,87,0.00,,FEW070,0.00,0.00,VWS V14.00,2013-01-25 06:38:00,
2013-01-25 01:43:00,58.6,54.8,30.20,ENE,72,0.0,0.0,87,0.00,,FEW070,0.00,0.00,VWS V14.00,2013-01-25 06:43:00,
2013-01-25 01:48:00,58.6,55.1,30.20,ENE,72,0.0,0.0,88,0.00,,FEW070,0.00,0.00,VWS V14.00,2013-01-25 06:48:00,
2013-01-25 01:53:00,58.6,55.1,30.20,ENE,72,0.0,0.0,88,0.00,,FEW070,0.00,0.00,VWS V14.00,2013-01-25 06:53:00,
2013-01-25 01:58:00,58.6,55.1,30.20,ENE,72,0.0,0.0,88,0.00,,FEW070,0.00,0.00,VWS V14.00,2013-01-25 06:58:00,
2013-01-25 02:03:00,58.6,55.1,30.19,ENE,72,0.0,0.0,88,0.00,,FEW070,0.00,0.00,VWS V14.00,2013-01-25 07:03:00,
2013-01-25 02:09:00,58.6,55.1,30.20,ENE,72,0.0,0.0,88,0.00,,FEW070,0.00,0.00,VWS V14.00,2013-01-25 07:09:00,
2013-01-25 02:14:00,58.6,55.1,30.19,ENE,72,0.0,0.0,88,0.00,,FEW070,0.00,0.00,VWS V14.00,2013-01-25 07:14:00,
2013-01-25 02:19:00,58.5,55.0,30.20,ENE,72,0.0,0.0,88,0.00,,FEW070,0.00,0.00,VWS V14.00,2013-01-25 07:19:00,
2013-01-25 02:24:00,58.5,54.7,30.19,ENE,72,0.0,0.0,87,0.00,,FEW070,0.00,0.00,VWS V14.00,2013-01-25 07:24:00,
2013-01-25 02:29:00,58.6,54.8,30.19,ENE,72,0.0,0.0,87,0.00,,FEW070,0.00,0.00,VWS V14.00,2013-01-25 07:29:00,
2013-01-25 02:34:00,58.7,54.5,30.19,ENE,72,0.0,0.0,86,0.00,,FEW070,0.00,0.00,VWS V14.00,2013-01-25 07:34:00,
2013-01-25 02:39:00,58.9,54.7,30.19,ENE,72,0.0,0.0,86,0.00,,FEW070,0.00,0.00,VWS V14.00,2013-01-25 07:39:00,
2013-01-25 02:44:00,58.9,54.4,30.19,ENE,72,0.0,0.0,85,0.00,,FEW070,0.00,0.00,VWS V14.00,2013-01-25 07:44:00,
2013-01-25 02:49:00,59.0,54.2,30.19,ENE,72,1.0,1.0,84,0.00,,FEW070,0.00,0.00,VWS V14.00,2013-01-25 07:49:00,
2013-01-25 02:54:00,59.2,54.0,30.19,ENE,72,1.0,2.0,83,0.00,,FEW070,0.00,0.00,VWS V14.00,2013-01-25 07:54:00,
2013-01-25 02:59:00,59.6,54.1,30.19,ENE,72,2.0,3.0,82,0.00,,FEW070,0.00,0.00,VWS V14.00,2013-01-25 07:59:00,
2013-01-25 03:04:00,59.9,53.7,30.19,ENE,72,2.0,2.0,80,0.00,,FEW070,0.00,0.00,VWS V14.00,2013-01-25 08:04:00,
2013-01-25 03:09:00,60.1,53.6,30.19,ENE,72,0.0,1.0,79,0.00,,FEW070,0.00,0.00,VWS V14.00,2013-01-25 08:09:00,
2013-01-25 03:14:00,60.1,53.6,30.19,ENE,72,3.0,3.0,79,0.00,,FEW070,0.00,0.00,VWS V14.00,2013-01-25 08:14:00,
2013-01-25 03:19:00,60.1,53.6,30.19,ENE,72,1.0,2.0,79,0.00,,FEW070,0.00,0.00,VWS V14.00,2013-01-25 08:19:00,
2013-01-25 03:24:00,59.9,53.4,30.19,ENE,72,0.0,0.0,79,0.00,,FEW070,0.00,0.00,VWS V14.00,2013-01-25 08:24:00,
2013-01-25 03:29:00,59.9,53.4,30.19,ENE,72,2.0,3.0,79,0.00,,FEW070,0.00,0.00,VWS V14.00,2013-01-25 08:29:00,
2013-01-25 03:34:00,59.7,53.5,30.18,ENE,72,0.0,1.0,80,0.00,,FEW070,0.00,0.00,VWS V14.00,2013-01-25 08:34:00,
2013-01-25 03:39:00,59.7,53.2,30.19,ENE,72,0.0,1.0,79,0.00,,FEW070,0.00,0.00,VWS V14.00,2013-01-25 08:39:00,
2013-01-25 03:44:00,59.7,53.2,30.19,ENE,72,0.0,0.0,79,0.00,,FEW070,0.00,0.00,VWS V14.00,2013-01-25 08:44:00,
2013-01-25 03:49:00,59.7,53.2,30.19,ENE,72,0.0,0.0,79,0.00,,FEW070,0.00,0.00,VWS V14.00,2013-01-25 08:49:00,
2013-01-25 03:54:00,59.7,53.2,30.19,ENE,72,2.0,2.0,79,0.00,,FEW070,0.00,0.00,VWS V14.00,2013-01-25 08:54:00,
2013-01-25 03:59:00,59.7,53.2,30.19,ENE,72,0.0,1.0,79,0.00,,FEW070,0.00,0.00,VWS V14.00,2013-01-25 08:59:00,
2013-01-25 04:04:00,59.7,53.2,30.19,ENE,72,0.0,0.0,79,0.00,,FEW070,0.00,0.00,VWS V14.00,2013-01-25 09:04:00,
2013-01-25 04:09:00,59.7,53.2,30.19,ENE,72,0.0,1.0,79,0.00,,FEW070,0.00,0.00,VWS V14.00,2013-01-25 09:09:00,
2013-01-25 04:14:00,59.7,53.2,30.19,ENE,72,0.0,0.0,79,0.00,,FEW070,0.00,0.00,VWS V14.00,2013-01-25 09:14:00,
2013-01-25 04:19:00,59.6,53.1,30.18,ENE,72,0.0,0.0,79,0.00,,FEW070,0.00,0.00,VWS V14.00,2013-01-25 09:19:00,
2013-01-25 04:24:00,59.5,53.0,30.18,ENE,72,0.0,2.0,79,0.00,,FEW070,0.00,0.00,VWS V14.00,2013-01-25 09:24:00,
2013-01-25 04:29:00,59.5,53.3,30.18,ENE,72,0.0,0.0,80,0.00,,FEW070,0.00,0.00,VWS V14.00,2013-01-25 09:29:00,
2013-01-25 04:34:00,59.4,52.9,30.18,ENE,72,0.0,0.0,79,0.00,,FEW070,0.00,0.00,VWS V14.00,2013-01-25 09:34:00,
2013-01-25 04:39:00,59.2,53.0,30.18,ENE,72,0.0,0.0,80,0.00,,FEW070,0.00,0.00,VWS V14.00,2013-01-25 09:39:00,
2013-01-25 04:44:00,59.1,52.9,30.18,ENE,72,0.0,0.0,80,0.00,,FEW070,0.00,0.00,VWS V14.00,2013-01-25 09:44:00,
2013-01-25 04:49:00,59.1,53.3,30.18,ENE,72,0.0,1.0,81,0.00,,FEW070,0.00,0.00,VWS V14.00,2013-01-25 09:49:00,
2013-01-25 04:55:00,59.1,53.3,30.18,ENE,72,0.0,1.0,81,0.00,,FEW070,0.00,0.00,VWS V14.00,2013-01-25 09:55:00,
2013-01-25 05:00:00,59.0,53.2,30.18,ENE,72,0.0,1.0,81,0.00,,FEW070,0.00,0.00,VWS V14.00,2013-01-25 10:00:00,
2013-01-25 05:05:00,58.9,53.1,30.18,ENE,72,0.0,0.0,81,0.00,,FEW070,0.00,0.00,VWS V14.00,2013-01-25 10:05:00,
2013-01-25 05:10:00,58.7,53.2,30.18,ENE,72,0.0,0.0,82,0.00,,FEW070,0.00,0.00,VWS V14.00,2013-01-25 10:10:00,
2013-01-25 05:15:00,58.7,53.2,30.18,ENE,72,0.0,0.0,82,0.00,,FEW070,0.00,0.00,VWS V14.00,2013-01-25 10:15:00,
2013-01-25 05:20:00,58.6,53.1,30.19,ENE,72,0.0,0.0,82,0.00,,FEW070,0.00,0.00,VWS V14.00,2013-01-25 10:20:00,
2013-01-25 05:25:00,58.5,53.0,30.19,ENE,72,0.0,0.0,82,0.00,,FEW070,0.00,0.00,VWS V14.00,2013-01-25 10:25:00,
2013-01-25 05:30:00,58.4,52.9,30.19,ENE,72,0.0,0.0,82,0.00,,FEW070,0.00,0.00,VWS V14.00,2013-01-25 10:30:00,
2013-01-25 05:35:00,58.3,52.8,30.18,ENE,72,0.0,0.0,82,0.00,,FEW070,0.00,0.00,VWS V14.00,2013-01-25 10:35:00,
2013-01-25 05:40:00,58.3,52.8,30.19,ENE,72,0.0,1.0,82,0.00,,FEW070,0.00,0.00,VWS V14.00,2013-01-25 10:40:00,
2013-01-25 05:45:00,58.3,52.8,30.19,ENE,72,0.0,0.0,82,0.00,,FEW070,0.00,0.00,VWS V14.00,2013-01-25 10:45:00,
2013-01-25 05:50:00,58.3,52.5,30.19,ENE,72,0.0,0.0,81,0.00,,FEW070,0.00,0.00,VWS V14.00,2013-01-25 10:50:00,
2013-01-25 05:55:00,58.4,52.6,30.19,ENE,72,0.0,1.0,81,0.00,,FEW070,0.00,0.00,VWS V14.00,2013-01-25 10:55:00,
2013-01-25 06:00:00,58.4,52.6,30.19,ENE,72,0.0,0.0,81,0.00,,FEW070,0.00,0.00,VWS V14.00,2013-01-25 11:00:00,
2013-01-25 06:05:00,58.5,52.7,30.19,ENE,72,0.0,0.0,81,0.00,,FEW070,0.00,0.00,VWS V14.00,2013-01-25 11:05:00,
2013-01-25 06:10:00,58.6,52.8,30.19,ENE,72,0.0,0.0,81,0.00,,FEW070,0.00,0.00,VWS V14.00,2013-01-25 11:10:00,
2013-01-25 06:15:00,58.5,52.7,30.20,ENE,72,0.0,0.0,81,0.00,,FEW070,0.00,0.00,VWS V14.00,2013-01-25 11:15:00,
2013-01-25 06:20:00,58.5,53.0,30.19,ENE,72,0.0,0.0,82,0.00,,FEW070,0.00,0.00,VWS V14.00,2013-01-25 11:20:00,
2013-01-25 06:25:00,58.4,52.6,30.20,ENE,72,0.0,0.0,81,0.00,,FEW070,0.00,0.00,VWS V14.00,2013-01-25 11:25:00,
2013-01-25 06:30:00,58.3,52.5,30.20,ENE,72,0.0,0.0,81,0.00,,FEW070,0.00,0.00,VWS V14.00,2013-01-25 11:30:00,
2013-01-25 06:35:00,58.2,52.7,30.20,ENE,72,0.0,1.0,82,0.00,,FEW070,0.00,0.00,VWS V14.00,2013-01-25 11:35:00,
2013-01-25 06:40:00,58.3,52.8,30.20,ENE,72,0.0,0.0,82,0.00,,FEW070,0.00,0.00,VWS V14.00,2013-01-25 11:40:00,
2013-01-25 06:45:00,58.4,52.6,30.20,ENE,72,0.0,1.0,81,0.00,,FEW070,0.00,0.00,VWS V14.00,2013-01-25 11:45:00,
2013-01-25 06:50:00,58.5,52.7,30.20,ENE,72,3.0,4.0,81,0.00,,FEW070,0.00,0.00,VWS V14.00,2013-01-25 11:50:00,
2013-01-25 06:55:00,58.7,52.9,30.20,ENE,72,0.0,2.0,81,0.00,,FEW070,0.00,0.00,VWS V14.00,2013-01-25 11:55:00,
2013-01-25 07:00:00,58.9,52.8,30.20,ENE,72,0.0,0.0,80,0.00,,FEW070,0.00,0.00,VWS V14.00,2013-01-25 12:00:00,
2013-01-25 07:05:00,59.1,52.6,30.20,ENE,72,0.0,1.0,79,0.00,,FEW070,0.00,0.00,VWS V14.00,2013-01-25 12:05:00,
2013-01-25 07:10:00,59.1,52.6,30.20,ENE,72,0.0,2.0,79,0.00,,FEW070,0.00,0.00,VWS V14.00,2013-01-25 12:10:00,
2013-01-25 07:15:00,59.1,52.6,30.20,ENE,72,0.0,2.0,79,0.00,,FEW070,0.00,0.00,VWS V14.00,2013-01-25 12:15:00,
2013-01-25 07:20:00,59.1,52.6,30.21,ENE,72,0.0,4.0,79,0.00,,FEW070,0.00,5.00,VWS V14.00,2013-01-25 12:20:00,
2013-01-25 07:25:00,59.1,52.6,30.21,ENE,72,0.0,1.0,79,0.00,,FEW070,0.00,11.00,VWS V14.00,2013-01-25 12:25:00,
2013-01-25 07:30:00,59.0,52.5,30.21,ENE,72,0.0,2.0,79,0.00,,FEW070,0.00,7.00,VWS V14.00,2013-01-25 12:30:00,
2013-01-25 07:35:00,59.0,52.5,30.21,ENE,72,1.0,3.0,79,0.00,,CLR,0.00,11.00,VWS V14.00,2013-01-25 12:35:00,
2013-01-25 07:40:00,59.0,52.5,30.21,ENE,72,1.0,2.0,79,0.00,,CLR,0.00,12.00,VWS V14.00,2013-01-25 12:40:00,
2013-01-25 07:45:00,58.9,52.4,30.22,ENE,72,0.0,1.0,79,0.00,,CLR,0.00,21.00,VWS V14.00,2013-01-25 12:45:00,
2013-01-25 07:50:00,58.9,52.4,30.22,ENE,72,0.0,3.0,79,0.00,,CLR,0.00,28.00,VWS V14.00,2013-01-25 12:50:00,
2013-01-25 07:55:00,59.0,52.5,30.22,ENE,72,3.0,3.0,79,0.00,,CLR,0.00,23.00,VWS V14.00,2013-01-25 12:55:00,
2013-01-25 08:00:00,59.1,52.6,30.22,ENE,72,1.0,5.0,79,0.00,,CLR,0.00,39.00,VWS V14.00,2013-01-25 13:00:00,
2013-01-25 08:05:00,59.3,52.8,30.22,ENE,72,5.0,5.0,79,0.00,,CLR,0.00,37.00,VWS V14.00,2013-01-25 13:05:00,
2013-01-25 08:10:00,59.7,52.8,30.22,ENE,63,1.0,3.0,78,0.00,,CLR,0.00,33.00,VWS V14.00,2013-01-25 13:10:00,
2013-01-25 08:15:00,60.2,53.0,30.22,ENE,61,0.0,4.0,77,0.00,,CLR,0.00,58.00,VWS V14.00,2013-01-25 13:15:00,
2013-01-25 08:20:00,60.5,52.9,30.22,ENE,60,4.0,4.0,76,0.00,,CLR,0.00,56.00,VWS V14.00,2013-01-25 13:20:00,
2013-01-25 08:25:00,60.8,52.8,30.22,NE,51,3.0,5.0,75,0.00,,CLR,0.00,76.00,VWS V14.00,2013-01-25 13:25:00,
2013-01-25 08:30:00,61.1,52.8,30.22,NE,45,5.0,5.0,74,0.00,,CLR,0.00,46.00,VWS V14.00,2013-01-25 13:30:00,
2013-01-25 08:35:00,61.4,53.0,30.22,NE,44,3.0,5.0,74,0.00,,CLR,0.00,104.00,VWS V14.00,2013-01-25 13:35:00,
2013-01-25 08:41:00,61.8,52.7,30.22,NE,38,4.0,6.0,72,0.00,,CLR,0.00,56.00,VWS V14.00,2013-01-25 13:41:00,
2013-01-25 08:46:00,62.1,53.0,30.23,NNE,32,5.0,7.0,72,0.00,,CLR,0.00,100.00,VWS V14.00,2013-01-25 13:46:00,
2013-01-25 08:51:00,62.4,53.3,30.23,NNE,30,5.0,7.0,72,0.00,,CLR,0.00,109.00,VWS V14.00,2013-01-25 13:51:00,
2013-01-25 08:56:00,62.9,53.4,30.23,NE,36,6.0,7.0,71,0.00,,CLR,0.00,118.00,VWS V14.00,2013-01-25 13:56:00,
2013-01-25 09:01:00,63.3,53.0,30.23,NNE,28,2.0,6.0,69,0.00,,CLR,0.00,109.00,VWS V14.00,2013-01-25 14:01:00,
2013-01-25 09:06:00,63.5,53.2,30.23,NE,38,3.0,9.0,69,0.00,,CLR,0.00,111.00,VWS V14.00,2013-01-25 14:06:00,
2013-01-25 09:11:00,63.8,53.5,30.23,NNE,31,3.0,4.0,69,0.00,,CLR,0.00,104.00,VWS V14.00,2013-01-25 14:11:00,
2013-01-25 09:16:00,64.1,53.7,30.23,NNE,33,3.0,3.0,69,0.00,,CLR,0.00,116.00,VWS V14.00,2013-01-25 14:16:00,
2013-01-25 09:21:00,64.5,53.3,30.24,NE,34,3.0,6.0,67,0.00,,CLR,0.00,121.00,VWS V14.00,2013-01-25 14:21:00,
2013-01-25 09:26:00,65.0,53.4,30.24,NNE,15,6.0,10.0,66,0.00,,CLR,0.00,116.00,VWS V14.00,2013-01-25 14:26:00,
2013-01-25 09:31:00,65.1,53.5,30.24,North,9,5.0,9.0,66,0.00,,CLR,0.00,125.00,VWS V14.00,2013-01-25 14:31:00,
2013-01-25 09:36:00,65.3,53.7,30.24,NNE,17,4.0,10.0,66,0.00,,CLR,0.00,49.00,VWS V14.00,2013-01-25 14:36:00,
2013-01-25 09:41:00,65.4,53.3,30.24,North,11,6.0,7.0,65,0.00,,CLR,0.00,113.00,VWS V14.00,2013-01-25 14:41:00,
2013-01-25 09:46:00,65.7,53.6,30.24,NNE,18,3.0,8.0,65,0.00,,CLR,0.00,100.00,VWS V14.00,2013-01-25 14:46:00,
2013-01-25 09:51:00,66.2,54.9,30.24,NNE,19,3.0,5.0,67,0.00,,CLR,0.00,98.00,VWS V14.00,2013-01-25 14:51:00,
2013-01-25 09:56:00,66.5,54.4,30.24,NNE,13,9.0,10.0,65,0.00,,CLR,0.00,97.00,VWS V14.00,2013-01-25 14:56:00,
2013-01-25 10:01:00,66.7,54.6,30.24,NNE,13,4.0,9.0,65,0.00,,CLR,0.00,95.00,VWS V14.00,2013-01-25 15:01:00,
2013-01-25 10:06:00,66.7,53.7,30.24,North,360,4.0,6.0,63,0.00,,CLR,0.00,97.00,VWS V14.00,2013-01-25 15:06:00,
2013-01-25 10:11:00,66.8,53.8,30.24,North,5,4.0,8.0,63,0.00,,CLR,0.00,97.00,VWS V14.00,2013-01-25 15:11:00,
2013-01-25 10:16:00,67.1,54.5,30.24,NNE,17,7.0,7.0,64,0.00,,CLR,0.00,98.00,VWS V14.00,2013-01-25 15:16:00,
2013-01-25 10:21:00,67.2,54.6,30.24,NNE,30,4.0,4.0,64,0.00,,CLR,0.00,98.00,VWS V14.00,2013-01-25 15:21:00,
2013-01-25 10:26:00,67.3,54.3,30.24,NNE,28,7.0,9.0,63,0.00,,CLR,0.00,98.00,VWS V14.00,2013-01-25 15:26:00,
2013-01-25 10:31:00,67.6,55.0,30.24,NNE,30,3.0,7.0,64,0.00,,CLR,0.00,100.00,VWS V14.00,2013-01-25 15:31:00,
2013-01-25 10:36:00,67.8,54.8,30.24,NNE,17,4.0,4.0,63,0.00,,FEW080,0.00,100.00,VWS V14.00,2013-01-25 15:36:00,
2013-01-25 10:41:00,68.0,55.0,30.24,NNE,17,2.0,3.0,63,0.00,,FEW080,0.00,102.00,VWS V14.00,2013-01-25 15:41:00,
2013-01-25 10:46:00,68.5,55.9,30.24,NNE,19,7.0,8.0,64,0.00,,FEW080,0.00,104.00,VWS V14.00,2013-01-25 15:46:00,
2013-01-25 10:51:00,69.0,55.5,30.24,NNE,23,0.0,5.0,62,0.00,,FEW080,0.00,105.00,VWS V14.00,2013-01-25 15:51:00,
2013-01-25 10:56:00,69.0,55.0,30.24,NE,34,0.0,2.0,61,0.00,,FEW080,0.00,107.00,VWS V14.00,2013-01-25 15:56:00,
2013-01-25 11:01:00,69.2,55.6,30.23,NNE,22,5.0,9.0,62,0.00,,FEW080,0.00,107.00,VWS V14.00,2013-01-25 16:01:00,
2013-01-25 11:06:00,69.6,56.0,30.23,NNE,26,1.0,5.0,62,0.00,,FEW080,0.00,109.00,VWS V14.00,2013-01-25 16:06:00,
2013-01-25 11:11:00,70.0,56.0,30.23,NNE,24,3.0,4.0,61,0.00,,FEW080,0.00,111.00,VWS V14.00,2013-01-25 16:11:00,
2013-01-25 11:16:00,70.4,56.3,30.23,ENE,68,4.0,6.0,61,0.00,,FEW080,0.00,111.00,VWS V14.00,2013-01-25 16:16:00,
2013-01-25 11:21:00,70.7,56.6,30.23,ENE,68,2.0,5.0,61,0.00,,FEW080,0.00,113.00,VWS V14.00,2013-01-25 16:21:00,
2013-01-25 11:26:00,71.1,57.0,30.22,NE,51,4.0,5.0,61,0.00,,FEW080,0.00,114.00,VWS V14.00,2013-01-25 16:26:00,
2013-01-25 11:31:00,71.4,57.3,30.22,NE,54,7.0,10.0,61,0.00,,FEW080,0.00,116.00,VWS V14.00,2013-01-25 16:31:00,
2013-01-25 11:36:00,71.3,56.7,30.22,ENE,58,1.0,4.0,60,0.00,,CLR,0.00,116.00,VWS V14.00,2013-01-25 16:36:00,
2013-01-25 11:41:00,71.4,56.8,30.22,NE,53,2.0,5.0,60,0.00,,CLR,0.00,118.00,VWS V14.00,2013-01-25 16:41:00,
2013-01-25 11:46:00,71.5,57.4,30.21,NE,53,3.0,3.0,61,0.00,,CLR,0.00,120.00,VWS V14.00,2013-01-25 16:46:00,
2013-01-25 11:51:00,71.7,57.1,30.21,East,89,3.0,5.0,60,0.00,,CLR,0.00,121.00,VWS V14.00,2013-01-25 16:51:00,
2013-01-25 11:56:00,71.7,57.1,30.21,East,88,3.0,5.0,60,0.00,,CLR,0.00,125.00,VWS V14.00,2013-01-25 16:56:00,
2013-01-25 12:02:00,71.7,57.1,30.21,East,88,0.0,2.0,60,0.00,,CLR,0.00,130.00,VWS V14.00,2013-01-25 17:02:00,
2013-01-25 12:07:00,71.9,57.7,30.21,ESE,103,7.0,12.0,61,0.00,,CLR,0.00,141.00,VWS V14.00,2013-01-25 17:07:00,
2013-01-25 12:12:00,72.0,57.4,30.21,East,101,3.0,5.0,60,0.00,,CLR,0.00,127.00,VWS V14.00,2013-01-25 17:12:00,
2013-01-25 12:17:00,72.3,57.7,30.21,East,80,5.0,11.0,60,0.00,,CLR,0.00,88.00,VWS V14.00,2013-01-25 17:17:00,
2013-01-25 12:22:00,72.1,57.5,30.20,ENE,72,5.0,9.0,60,0.00,,CLR,0.00,60.00,VWS V14.00,2013-01-25 17:22:00,
2013-01-25 12:27:00,71.9,57.3,30.20,ENE,71,3.0,5.0,60,0.00,,CLR,0.00,169.00,VWS V14.00,2013-01-25 17:27:00,
2013-01-25 12:32:00,72.2,57.1,30.20,ENE,74,0.0,3.0,59,0.00,,CLR,0.00,79.00,VWS V14.00,2013-01-25 17:32:00,
2013-01-25 12:37:00,72.2,58.0,30.19,East,91,3.0,9.0,61,0.00,,CLR,0.00,178.00,VWS V14.00,2013-01-25 17:37:00,
2013-01-25 12:42:00,72.8,58.1,30.19,South,178,4.0,4.0,60,0.00,,CLR,0.00,81.00,VWS V14.00,2013-01-25 17:42:00,
2013-01-25 12:47:00,73.4,58.2,30.18,SSE,165,11.0,11.0,59,0.00,,CLR,0.00,79.00,VWS V14.00,2013-01-25 17:47:00,
2013-01-25 12:52:00,73.5,58.3,30.18,South,173,0.0,6.0,59,0.00,,CLR,0.00,79.00,VWS V14.00,2013-01-25 17:52:00,
2013-01-25 12:57:00,73.6,57.9,30.18,SSE,159,6.0,10.0,58,0.00,,CLR,0.00,74.00,VWS V14.00,2013-01-25 17:57:00,
2013-01-25 13:02:00,73.4,58.2,30.17,SSE,155,5.0,7.0,59,0.00,,CLR,0.00,69.00,VWS V14.00,2013-01-25 18:02:00,
2013-01-25 13:07:00,73.1,57.5,30.17,SSE,163,5.0,10.0,58,0.00,,CLR,0.00,65.00,VWS V14.00,2013-01-25 18:07:00,
2013-01-25 13:12:00,72.9,58.7,30.17,SSE,150,4.0,5.0,61,0.00,,CLR,0.00,76.00,VWS V14.00,2013-01-25 18:12:00,
2013-01-25 13:17:00,73.2,58.5,30.17,SSE,154,10.0,10.0,60,0.00,,CLR,0.00,156.00,VWS V14.00,2013-01-25 18:17:00,
2013-01-25 13:22:00,73.8,58.6,30.17,South,170,9.0,10.0,59,0.00,,CLR,0.00,156.00,VWS V14.00,2013-01-25 18:22:00,
2013-01-25 13:27:00,73.9,58.7,30.16,SE,129,7.0,10.0,59,0.00,,CLR,0.00,62.00,VWS V14.00,2013-01-25 18:27:00,
2013-01-25 13:32:00,73.8,58.6,30.16,SE,136,2.0,7.0,59,0.00,,CLR,0.00,146.00,VWS V14.00,2013-01-25 18:32:00,
2013-01-25 13:37:00,74.0,58.8,30.16,ESE,111,11.0,13.0,59,0.00,,CLR,0.00,142.00,VWS V14.00,2013-01-25 18:37:00,
2013-01-25 13:42:00,73.8,59.1,30.16,ESE,105,6.0,10.0,60,0.00,,CLR,0.00,137.00,VWS V14.00,2013-01-25 18:42:00,
2013-01-25 13:47:00,73.9,59.6,30.16,ESE,123,4.0,6.0,61,0.00,,CLR,0.00,135.00,VWS V14.00,2013-01-25 18:47:00,
2013-01-25 13:52:00,74.4,59.6,30.15,ESE,122,5.0,7.0,60,0.00,,CLR,0.00,134.00,VWS V14.00,2013-01-25 18:52:00,
2013-01-25 13:57:00,74.0,59.7,30.15,SE,134,3.0,6.0,61,0.00,,CLR,0.00,130.00,VWS V14.00,2013-01-25 18:57:00,
2013-01-25 14:02:00,73.7,59.0,30.15,SE,134,4.0,10.0,60,0.00,,CLR,0.00,134.00,VWS V14.00,2013-01-25 19:02:00,
2013-01-25 14:07:00,73.6,59.3,30.15,SE,134,2.0,4.0,61,0.00,,CLR,0.00,135.00,VWS V14.00,2013-01-25 19:07:00,
2013-01-25 14:12:00,74.2,56.5,30.15,SE,134,4.0,7.0,54,0.00,,CLR,0.00,127.00,VWS V14.00,2013-01-25 19:12:00,
2013-01-25 14:17:00,74.2,57.5,30.15,SE,142,3.0,5.0,56,0.00,,CLR,0.00,130.00,VWS V14.00,2013-01-25 19:17:00,
2013-01-25 14:22:00,74.5,59.2,30.15,SE,143,2.0,5.0,59,0.00,,CLR,0.00,127.00,VWS V14.00,2013-01-25 19:22:00,
2013-01-25 14:27:00,74.6,59.3,30.15,ESE,107,5.0,5.0,59,0.00,,CLR,0.00,125.00,VWS V14.00,2013-01-25 19:27:00,
2013-01-25 14:32:00,73.9,58.7,30.14,ESE,113,7.0,13.0,59,0.00,,SCT055,0.00,116.00,VWS V14.00,2013-01-25 19:32:00,
2013-01-25 14:37:00,73.7,59.0,30.14,ESE,111,5.0,7.0,60,0.00,,SCT055,0.00,114.00,VWS V14.00,2013-01-25 19:37:00,
2013-01-25 14:42:00,73.3,59.0,30.14,East,96,3.0,7.0,61,0.00,,SCT055,0.00,118.00,VWS V14.00,2013-01-25 19:42:00,
2013-01-25 14:47:00,73.6,58.9,30.14,SE,128,5.0,6.0,60,0.00,,SCT055,0.00,123.00,VWS V14.00,2013-01-25 19:47:00,
2013-01-25 14:52:00,74.0,58.3,30.14,SE,130,8.0,10.0,58,0.00,,SCT055,0.00,116.00,VWS V14.00,2013-01-25 19:52:00,
2013-01-25 14:57:00,74.0,57.3,30.14,ESE,116,3.0,10.0,56,0.00,,SCT055,0.00,109.00,VWS V14.00,2013-01-25 19:57:00,
2013-01-25 15:02:00,74.3,57.1,30.14,SE,138,6.0,7.0,55,0.00,,SCT055,0.00,49.00,VWS V14.00,2013-01-25 20:02:00,
2013-01-25 15:07:00,74.4,56.7,30.14,South,186,3.0,11.0,54,0.00,,SCT055,0.00,102.00,VWS V14.00,2013-01-25 20:07:00,
2013-01-25 15:12:00,74.4,57.2,30.14,SE,129,10.0,10.0,55,0.00,,SCT055,0.00,98.00,VWS V14.00,2013-01-25 20:12:00,
2013-01-25 15:17:00,74.6,57.4,30.14,SSE,161,3.0,7.0,55,0.00,,SCT055,0.00,95.00,VWS V14.00,2013-01-25 20:17:00,
2013-01-25 15:22:00,74.8,56.5,30.13,SSE,160,7.0,11.0,53,0.00,,SCT055,0.00,90.00,VWS V14.00,2013-01-25 20:22:00,
2013-01-25 15:27:00,74.8,56.5,30.14,ESE,113,9.0,10.0,53,0.00,,SCT055,0.00,79.00,VWS V14.00,2013-01-25 20:27:00,
2013-01-25 15:33:00,74.6,55.8,30.13,SSE,154,0.0,10.0,52,0.00,,SCT055,0.00,81.00,VWS V14.00,2013-01-25 20:33:00,
2013-01-25 15:38:00,74.5,56.3,30.14,SE,136,6.0,6.0,53,0.00,,SCT055,0.00,79.00,VWS V14.00,2013-01-25 20:38:00,
2013-01-25 15:43:00,74.5,56.8,30.13,SE,128,6.0,7.0,54,0.00,,SCT055,0.00,76.00,VWS V14.00,2013-01-25 20:43:00,
2013-01-25 15:48:00,74.5,56.8,30.13,SE,135,2.0,7.0,54,0.00,,SCT055,0.00,72.00,VWS V14.00,2013-01-25 20:48:00,
2013-01-25 15:53:00,74.4,57.2,30.13,SE,129,1.0,7.0,55,0.00,,SCT055,0.00,70.00,VWS V14.00,2013-01-25 20:53:00,
2013-01-25 15:58:00,74.4,57.2,30.13,SSE,150,2.0,5.0,55,0.00,,SCT055,0.00,70.00,VWS V14.00,2013-01-25 20:58:00,
2013-01-25 16:03:00,74.6,57.4,30.13,SSE,166,6.0,9.0,55,0.00,,SCT055,0.00,69.00,VWS V14.00,2013-01-25 21:03:00,
2013-01-25 16:08:00,74.5,57.3,30.13,SSE,167,0.0,1.0,55,0.00,,SCT055,0.00,60.00,VWS V14.00,2013-01-25 21:08:00,
2013-01-25 16:13:00,74.4,56.2,30.13,SSE,154,1.0,5.0,53,0.00,,SCT055,0.00,63.00,VWS V14.00,2013-01-25 21:13:00,
2013-01-25 16:18:00,74.3,56.6,30.13,SSE,149,0.0,9.0,54,0.00,,SCT055,0.00,62.00,VWS V14.00,2013-01-25 21:18:00,
2013-01-25 16:23:00,74.2,57.0,30.14,SSE,147,2.0,4.0,55,0.00,,SCT055,0.00,60.00,VWS V14.00,2013-01-25 21:23:00,
2013-01-25 16:28:00,74.0,57.3,30.14,SE,139,6.0,6.0,56,0.00,,SCT055,0.00,60.00,VWS V14.00,2013-01-25 21:28:00,
2013-01-25 16:33:00,73.8,56.6,30.14,SE,127,5.0,7.0,55,0.00,,FEW070,0.00,56.00,VWS V14.00,2013-01-25 21:33:00,
2013-01-25 16:38:00,73.7,57.0,30.14,ESE,122,4.0,4.0,56,0.00,,FEW070,0.00,54.00,VWS V14.00,2013-01-25 21:38:00,
2013-01-25 16:43:00,73.6,57.4,30.14,ESE,122,1.0,4.0,57,0.00,,FEW070,0.00,51.00,VWS V14.00,2013-01-25 21:43:00,
2013-01-25 16:48:00,73.6,57.4,30.14,ESE,122,3.0,4.0,57,0.00,,FEW070,0.00,46.00,VWS V14.00,2013-01-25 21:48:00,
2013-01-25 16:53:00,73.5,57.8,30.14,ESE,122,5.0,7.0,58,0.00,,FEW070,0.00,42.00,VWS V14.00,2013-01-25 21:53:00,
2013-01-25 16:58:00,73.4,57.3,30.14,SE,125,0.0,6.0,57,0.00,,FEW070,0.00,39.00,VWS V14.00,2013-01-25 21:58:00,
2013-01-25 17:03:00,73.5,57.8,30.14,SE,126,0.0,3.0,58,0.00,,FEW070,0.00,37.00,VWS V14.00,2013-01-25 22:03:00,
2013-01-25 17:08:00,73.5,57.8,30.14,SE,126,3.0,6.0,58,0.00,,FEW070,0.00,35.00,VWS V14.00,2013-01-25 22:08:00,
2013-01-25 17:13:00,73.3,57.7,30.14,SE,127,0.0,1.0,58,0.00,,FEW070,0.00,37.00,VWS V14.00,2013-01-25 22:13:00,
2013-01-25 17:18:00,73.2,57.5,30.15,SE,127,3.0,3.0,58,0.00,,FEW070,0.00,39.00,VWS V14.00,2013-01-25 22:18:00,
2013-01-25 17:23:00,73.1,57.9,30.15,ESE,123,1.0,7.0,59,0.00,,FEW070,0.00,35.00,VWS V14.00,2013-01-25 22:23:00,
2013-01-25 17:28:00,72.9,57.8,30.15,SE,124,0.0,3.0,59,0.00,,FEW070,0.00,30.00,VWS V14.00,2013-01-25 22:28:00,
2013-01-25 17:33:00,72.8,58.1,30.15,SE,124,0.0,1.0,60,0.00,,FEW070,0.00,25.00,VWS V14.00,2013-01-25 22:33:00,
2013-01-25 17:38:00,72.7,58.0,30.15,SE,124,2.0,3.0,60,0.00,,FEW070,0.00,16.00,VWS V14.00,2013-01-25 22:38:00,
2013-01-25 17:43:00,72.5,57.8,30.15,SE,125,1.0,5.0,60,0.00,,FEW070,0.00,9.00,VWS V14.00,2013-01-25 22:43:00,
2013-01-25 17:48:00,72.3,58.1,30.15,SE,125,0.0,0.0,61,0.00,,FEW070,0.00,5.00,VWS V14.00,2013-01-25 22:48:00,
2013-01-25 17:53:00,72.1,57.9,30.15,SE,125,0.0,3.0,61,0.00,,FEW070,0.00,0.00,VWS V14.00,2013-01-25 22:53:00,
2013-01-25 17:58:00,71.8,58.5,30.15,SE,125,0.0,1.0,63,0.00,,FEW070,0.00,0.00,VWS V14.00,2013-01-25 22:58:00,
2013-01-25 18:03:00,71.6,58.8,30.15,SE,125,0.0,0.0,64,0.00,,FEW070,0.00,0.00,VWS V14.00,2013-01-25 23:03:00,
2013-01-25 18:08:00,71.3,58.5,30.15,SE,125,0.0,0.0,64,0.00,,FEW070,0.00,0.00,VWS V14.00,2013-01-25 23:08:00,
2013-01-25 18:13:00,71.0,58.7,30.15,SE,125,0.0,0.0,65,0.00,,FEW070,0.00,0.00,VWS V14.00,2013-01-25 23:13:00,
2013-01-25 18:18:00,70.8,58.5,30.15,SE,125,0.0,0.0,65,0.00,,FEW070,0.00,0.00,VWS V14.00,2013-01-25 23:18:00,
2013-01-25 18:23:00,70.6,58.3,30.15,SE,125,0.0,0.0,65,0.00,,FEW070,0.00,0.00,VWS V14.00,2013-01-25 23:23:00,
2013-01-25 18:28:00,70.5,58.6,30.15,SE,125,0.0,0.0,66,0.00,,FEW070,0.00,0.00,VWS V14.00,2013-01-25 23:28:00,
2013-01-25 18:33:00,70.3,59.2,30.15,SE,125,0.0,0.0,68,0.00,,FEW070,0.00,0.00,VWS V14.00,2013-01-25 23:33:00,
2013-01-25 18:38:00,70.0,58.5,30.15,SE,125,0.0,0.0,67,0.00,,FEW070,0.00,0.00,VWS V14.00,2013-01-25 23:38:00,
2013-01-25 18:43:00,69.6,58.2,30.15,SE,125,0.0,0.0,67,0.00,,FEW070,0.00,0.00,VWS V14.00,2013-01-25 23:43:00,
2013-01-25 18:48:00,69.3,57.9,30.15,SE,125,0.0,0.0,67,0.00,,FEW070,0.00,0.00,VWS V14.00,2013-01-25 23:48:00,
2013-01-25 18:53:00,69.1,58.9,30.15,SE,125,0.0,0.0,70,0.00,,FEW070,0.00,0.00,VWS V14.00,2013-01-25 23:53:00,
2013-01-25 18:58:00,68.9,59.5,30.15,SE,125,0.0,0.0,72,0.00,,FEW070,0.00,0.00,VWS V14.00,2013-01-25 23:58:00,
2013-01-25 19:03:00,68.5,59.1,30.15,SE,125,0.0,0.0,72,0.00,,FEW070,0.00,0.00,VWS V14.00,2013-01-26 00:03:00,
2013-01-25 19:08:00,68.2,59.2,30.15,SE,125,0.0,0.0,73,0.00,,FEW070,0.00,0.00,VWS V14.00,2013-01-26 00:08:00,
2013-01-25 19:13:00,68.0,59.4,30.15,SE,125,0.0,0.0,74,0.00,,FEW070,0.00,0.00,VWS V14.00,2013-01-26 00:13:00,
2013-01-25 19:18:00,67.8,59.6,30.16,SE,125,0.0,0.0,75,0.00,,FEW070,0.00,0.00,VWS V14.00,2013-01-26 00:18:00,
2013-01-25 19:23:00,67.5,59.7,30.16,SE,125,0.0,0.0,76,0.00,,FEW070,0.00,0.00,VWS V14.00,2013-01-26 00:23:00,
2013-01-25 19:28:00,67.2,59.4,30.16,SE,125,0.0,0.0,76,0.00,,FEW070,0.00,0.00,VWS V14.00,2013-01-26 00:28:00,
2013-01-25 19:33:00,66.8,59.4,30.16,SE,125,0.0,0.0,77,0.00,,FEW070,0.00,0.00,VWS V14.00,2013-01-26 00:33:00,
2013-01-25 19:38:00,66.6,59.9,30.16,SE,125,0.0,0.0,79,0.00,,FEW070,0.00,0.00,VWS V14.00,2013-01-26 00:38:00,
2013-01-25 19:43:00,66.1,59.0,30.15,SE,125,0.0,0.0,78,0.00,,FEW070,0.00,0.00,VWS V14.00,2013-01-26 00:43:00,
2013-01-25 19:48:00,65.9,59.2,30.16,SE,125,0.0,0.0,79,0.00,,FEW070,0.00,0.00,VWS V14.00,2013-01-26 00:48:00,
2013-01-25 19:54:00,65.6,58.9,30.16,SE,125,0.0,0.0,79,0.00,,FEW070,0.00,0.00,VWS V14.00,2013-01-26 00:54:00,
2013-01-25 19:59:00,65.4,59.1,30.16,SE,125,0.0,0.0,80,0.00,,FEW070,0.00,0.00,VWS V14.00,2013-01-26 00:59:00,
2013-01-25 20:04:00,65.2,58.9,30.16,SE,125,0.0,0.0,80,0.00,,FEW070,0.00,0.00,VWS V14.00,2013-01-26 01:04:00,
2013-01-25 20:09:00,65.0,58.7,30.16,SE,125,0.0,0.0,80,0.00,,FEW070,0.00,0.00,VWS V14.00,2013-01-26 01:09:00,
2013-01-25 20:14:00,64.9,58.9,30.16,SE,125,0.0,0.0,81,0.00,,FEW070,0.00,0.00,VWS V14.00,2013-01-26 01:14:00,
2013-01-25 20:19:00,64.9,59.3,30.16,SE,125,0.0,0.0,82,0.00,,FEW070,0.00,0.00,VWS V14.00,2013-01-26 01:19:00,
2013-01-25 20:24:00,64.8,59.2,30.16,SE,125,0.0,0.0,82,0.00,,FEW070,0.00,0.00,VWS V14.00,2013-01-26 01:24:00,
2013-01-25 20:29:00,64.6,59.0,30.16,SE,125,0.0,0.0,82,0.00,,FEW070,0.00,0.00,VWS V14.00,2013-01-26 01:29:00,
2013-01-25 20:34:00,64.3,59.0,30.17,SE,125,0.0,0.0,83,0.00,,FEW070,0.00,0.00,VWS V14.00,2013-01-26 01:34:00,
2013-01-25 20:39:00,64.2,58.6,30.16,SE,125,0.0,0.0,82,0.00,,FEW070,0.00,0.00,VWS V14.00,2013-01-26 01:39:00,
2013-01-25 20:44:00,64.2,58.9,30.16,SE,125,0.0,0.0,83,0.00,,FEW070,0.00,0.00,VWS V14.00,2013-01-26 01:44:00,
2013-01-25 20:49:00,64.2,58.9,30.16,SE,125,0.0,0.0,83,0.00,,FEW070,0.00,0.00,VWS V14.00,2013-01-26 01:49:00,
2013-01-25 20:54:00,64.1,58.8,30.17,SE,125,0.0,0.0,83,0.00,,FEW070,0.00,0.00,VWS V14.00,2013-01-26 01:54:00,
2013-01-25 20:59:00,64.0,59.1,30.17,SE,125,0.0,0.0,84,0.00,,FEW070,0.00,0.00,VWS V14.00,2013-01-26 01:59:00,
2013-01-25 21:04:00,63.9,59.0,30.17,SE,125,0.0,0.0,84,0.00,,FEW070,0.00,0.00,VWS V14.00,2013-01-26 02:04:00,
2013-01-25 21:09:00,63.8,58.9,30.17,SE,125,0.0,0.0,84,0.00,,FEW070,0.00,0.00,VWS V14.00,2013-01-26 02:09:00,
2013-01-25 21:14:00,63.8,58.9,30.17,SE,125,0.0,0.0,84,0.00,,FEW070,0.00,0.00,VWS V14.00,2013-01-26 02:14:00,
2013-01-25 21:19:00,63.7,59.1,30.17,SE,125,0.0,0.0,85,0.00,,FEW070,0.00,0.00,VWS V14.00,2013-01-26 02:19:00,
2013-01-25 21:24:00,63.6,59.0,30.17,SE,125,0.0,0.0,85,0.00,,FEW070,0.00,0.00,VWS V14.00,2013-01-26 02:24:00,
2013-01-25 21:29:00,63.4,58.8,30.17,SE,125,0.0,0.0,85,0.00,,FEW070,0.00,0.00,VWS V14.00,2013-01-26 02:29:00,
2013-01-25 21:34:00,63.3,58.7,30.17,SE,125,0.0,0.0,85,0.00,,FEW070,0.00,0.00,VWS V14.00,2013-01-26 02:34:00,
2013-01-25 21:39:00,63.2,58.6,30.17,SE,125,0.0,0.0,85,0.00,,FEW070,0.00,0.00,VWS V14.00,2013-01-26 02:39:00,
2013-01-25 21:44:00,63.0,58.4,30.17,SE,125,0.0,0.0,85,0.00,,FEW070,0.00,0.00,VWS V14.00,2013-01-26 02:44:00,
2013-01-25 21:49:00,62.9,58.3,30.17,SE,125,0.0,0.0,85,0.00,,FEW070,0.00,0.00,VWS V14.00,2013-01-26 02:49:00,
2013-01-25 21:54:00,62.8,58.2,30.17,SE,125,0.0,0.0,85,0.00,,FEW070,0.00,0.00,VWS V14.00,2013-01-26 02:54:00,
2013-01-25 21:59:00,62.7,58.1,30.17,SE,125,0.0,0.0,85,0.00,,FEW070,0.00,0.00,VWS V14.00,2013-01-26 02:59:00,
2013-01-25 22:04:00,62.6,58.0,30.17,SE,125,0.0,0.0,85,0.00,,FEW070,0.00,0.00,VWS V14.00,2013-01-26 03:04:00,
2013-01-25 22:09:00,62.5,57.9,30.17,SE,125,0.0,0.0,85,0.00,,FEW070,0.00,0.00,VWS V14.00,2013-01-26 03:09:00,
2013-01-25 22:14:00,62.6,58.4,30.17,SE,125,0.0,0.0,86,0.00,,FEW070,0.00,0.00,VWS V14.00,2013-01-26 03:14:00,
2013-01-25 22:19:00,62.6,58.4,30.17,SE,125,0.0,0.0,86,0.00,,FEW070,0.00,0.00,VWS V14.00,2013-01-26 03:19:00,
2013-01-25 22:24:00,62.6,58.4,30.17,SE,125,0.0,0.0,86,0.00,,FEW070,0.00,0.00,VWS V14.00,2013-01-26 03:24:00,
2013-01-25 22:29:00,62.8,58.9,30.17,SE,125,0.0,0.0,87,0.00,,FEW070,0.00,0.00,VWS V14.00,2013-01-26 03:29:00,
2013-01-25 22:34:00,62.9,59.0,30.17,SE,125,0.0,0.0,87,0.00,,FEW070,0.00,0.00,VWS V14.00,2013-01-26 03:34:00,
2013-01-25 22:39:00,62.9,59.0,30.17,SE,125,0.0,0.0,87,0.00,,FEW070,0.00,0.00,VWS V14.00,2013-01-26 03:39:00,
2013-01-25 22:44:00,62.9,59.0,30.17,SE,125,0.0,0.0,87,0.00,,FEW070,0.00,0.00,VWS V14.00,2013-01-26 03:44:00,
2013-01-25 22:49:00,62.8,58.9,30.17,SE,125,0.0,0.0,87,0.00,,FEW070,0.00,0.00,VWS V14.00,2013-01-26 03:49:00,
2013-01-25 22:54:00,62.9,59.0,30.17,SE,125,0.0,0.0,87,0.00,,FEW070,0.00,0.00,VWS V14.00,2013-01-26 03:54:00,
2013-01-25 22:59:00,63.0,59.4,30.17,SE,125,0.0,0.0,88,0.00,,FEW070,0.00,0.00,VWS V14.00,2013-01-26 03:59:00,
2013-01-25 23:04:00,63.0,59.4,30.17,SE,125,0.0,0.0,88,0.00,,FEW070,0.00,0.00,VWS V14.00,2013-01-26 04:04:00,
2013-01-25 23:09:00,62.9,59.0,30.17,SE,125,0.0,0.0,87,0.00,,FEW070,0.00,0.00,VWS V14.00,2013-01-26 04:09:00,
2013-01-25 23:14:00,62.7,58.8,30.17,SE,125,0.0,0.0,87,0.00,,FEW070,0.00,0.00,VWS V14.00,2013-01-26 04:14:00,
2013-01-25 23:19:00,62.6,59.0,30.17,SE,125,0.0,0.0,88,0.00,,FEW070,0.00,0.00,VWS V14.00,2013-01-26 04:19:00,
2013-01-25 23:24:00,62.4,58.8,30.17,SE,125,0.0,0.0,88,0.00,,FEW070,0.00,0.00,VWS V14.00,2013-01-26 04:24:00,
2013-01-25 23:29:00,62.3,58.7,30.17,SE,125,0.0,0.0,88,0.00,,FEW070,0.00,0.00,VWS V14.00,2013-01-26 04:29:00,
2013-01-25 23:34:00,62.3,58.7,30.17,SE,125,0.0,0.0,88,0.00,,SCT050,0.00,0.00,VWS V14.00,2013-01-26 04:34:00,
2013-01-25 23:39:00,62.4,59.1,30.16,SE,125,0.0,0.0,89,0.00,,SCT050,0.00,0.00,VWS V14.00,2013-01-26 04:39:00,
2013-01-25 23:44:00,62.4,59.1,30.16,SE,125,0.0,0.0,89,0.00,,SCT050,0.00,0.00,VWS V14.00,2013-01-26 04:44:00,
2013-01-25 23:50:00,62.4,59.1,30.16,SE,125,0.0,0.0,89,0.00,,SCT050,0.00,0.00,VWS V14.00,2013-01-26 04:50:00,
2013-01-25 23:55:00,62.2,58.9,30.16,SE,125,0.0,0.0,89,0.00,,SCT050,0.00,0.00,VWS V14.00,2013-01-26 04:55:00,